Lakeside, Arizona
Current Conditions -  °F | °C
As of 8:55 PM on Saturday 25 Oct 2014 (Local Time) from KSOW Reporting Station
Broken Clouds Broken Clouds  
Wind Chill: 57°   Ceiling: 8000
Heat Index: 57°   Visibility: 10mi
Dew Point: 41°   Wind: 8mph
Humidity: 55%   Direction: 170°S
Pressure: 30.29"   Gusts: NA
Location:  34.15°N, 109.98°W
Report Text: KSOW 260355Z AUTO 17007KT 10SM SCT060 BKN080 14/05 A3029 RMK AO2
Loading
Personal Weather Stations






























Interactive Weather Map
Tropical Storm Tracking
New forecast layout! Learn more

10-Day Weather Forecast

Advertisements
Track Severe Weather on mobile